createdAt,value
2017-10-11T00:01:45.556Z,34.80
2017-10-11T00:04:12.517Z,35.40
2017-10-11T00:06:38.697Z,35.57
2017-10-11T00:09:05.027Z,33.53
2017-10-11T00:11:31.229Z,32.73
2017-10-11T00:13:57.448Z,34.13
2017-10-11T00:16:23.675Z,34.77
2017-10-11T00:18:49.898Z,31.67
2017-10-11T00:21:16.089Z,30.30
2017-10-11T00:23:43.050Z,33.60
2017-10-11T00:26:09.236Z,33.17
2017-10-11T00:28:35.588Z,32.00
2017-10-11T00:31:02.509Z,29.97
2017-10-11T00:33:28.720Z,31.63
2017-10-11T00:35:55.974Z,33.40
2017-10-11T00:38:22.198Z,31.07
2017-10-11T00:40:48.417Z,29.20
2017-10-11T00:43:15.817Z,31.67
2017-10-11T00:45:42.001Z,32.20
2017-10-11T00:48:08.314Z,32.93
2017-10-11T00:50:34.511Z,30.77
2017-10-11T00:53:01.437Z,30.50
2017-10-11T00:55:27.669Z,31.03
2017-10-11T00:57:53.957Z,32.00
2017-10-11T01:00:20.173Z,31.80
2017-10-11T01:02:46.362Z,31.23
2017-10-11T01:05:12.581Z,31.30
2017-10-11T01:07:38.802Z,33.00
2017-10-11T01:10:05.040Z,32.50
2017-10-11T01:12:31.250Z,32.67
2017-10-11T01:14:57.523Z,31.83
2017-10-11T01:17:39.429Z,28.90
2017-10-11T01:20:05.652Z,30.27
2017-10-11T01:22:31.857Z,30.97
2017-10-11T01:24:58.106Z,29.83
2017-10-11T01:27:25.062Z,30.43
2017-10-11T01:29:51.348Z,30.30
2017-10-11T01:32:17.552Z,29.53
2017-10-11T01:34:43.777Z,33.03
2017-10-11T01:37:09.993Z,30.20
2017-10-11T01:39:36.221Z,28.70
2017-10-11T01:42:02.433Z,34.60
2017-10-11T01:44:28.662Z,34.77
2017-10-11T01:46:54.862Z,35.20
2017-10-11T01:49:21.824Z,35.07
2017-10-11T01:51:48.029Z,34.60
2017-10-11T01:54:14.273Z,35.63
2017-10-11T01:56:41.229Z,36.10
2017-10-11T01:59:07.493Z,35.67
2017-10-11T02:01:33.680Z,37.60
2017-10-11T02:03:59.874Z,36.07
2017-10-11T02:06:26.090Z,37.20
2017-10-11T02:08:52.273Z,35.97
2017-10-11T02:11:18.481Z,38.27
2017-10-11T02:13:45.413Z,33.70
2017-10-11T02:16:11.625Z,36.37
2017-10-11T02:18:37.837Z,35.70
2017-10-11T02:21:04.057Z,35.73
2017-10-11T02:23:30.301Z,30.87
2017-10-11T02:25:57.262Z,33.37
2017-10-11T02:28:23.465Z,30.40
2017-10-11T02:30:49.682Z,31.77
2017-10-11T02:33:15.904Z,33.30
2017-10-11T02:35:42.132Z,31.47
2017-10-11T02:38:08.313Z,31.10
2017-10-11T02:40:35.243Z,27.40
2017-10-11T02:43:01.460Z,28.17
2017-10-11T02:45:27.643Z,28.27
2017-10-11T02:47:53.871Z,24.93
2017-10-11T02:50:20.073Z,26.20
2017-10-11T02:52:47.014Z,25.80
2017-10-11T02:55:13.958Z,20.47
2017-10-11T02:57:40.157Z,23.37
2017-10-11T03:00:06.346Z,23.77
2017-10-11T03:02:32.533Z,23.50
2017-10-11T03:04:58.741Z,23.93
2017-10-11T03:07:24.921Z,21.27
2017-10-11T03:09:51.135Z,21.13
2017-10-11T03:12:18.061Z,22.20
2017-10-11T03:14:44.274Z,21.07
2017-10-11T03:17:10.471Z,18.50
2017-10-11T03:19:37.054Z,20.60
2017-10-11T03:22:03.242Z,17.20
2017-10-11T03:24:29.457Z,17.67
2017-10-11T03:26:55.645Z,20.30
2017-10-11T03:29:22.596Z,18.07
2017-10-11T03:31:49.541Z,19.10
2017-10-11T03:34:16.469Z,16.30
2017-10-11T03:36:42.709Z,16.63
2017-10-11T03:39:09.641Z,15.80
2017-10-11T03:41:35.905Z,16.67
2017-10-11T03:44:02.099Z,15.90
2017-10-11T03:46:28.312Z,17.50
2017-10-11T03:48:54.507Z,16.47
2017-10-11T03:51:20.686Z,15.97
2017-10-11T03:53:46.885Z,16.23
2017-10-11T03:56:13.098Z,15.40
2017-10-11T03:58:39.308Z,16.53
2017-10-11T04:01:05.614Z,16.40
2017-10-11T04:03:32.552Z,18.00
2017-10-11T04:05:59.480Z,14.57
2017-10-11T04:08:25.682Z,16.43
2017-10-11T04:10:51.896Z,16.10
2017-10-11T04:13:18.141Z,16.87
2017-10-11T04:15:44.323Z,16.50
2017-10-11T04:18:11.372Z,15.37
2017-10-11T04:20:37.556Z,15.13
2017-10-11T04:23:03.817Z,16.27
2017-10-11T04:25:30.757Z,12.40
2017-10-11T04:27:57.748Z,14.17
2017-10-11T04:30:24.004Z,14.57
2017-10-11T04:32:50.261Z,16.03
2017-10-11T04:35:16.458Z,15.20
2017-10-11T04:37:42.714Z,14.43
2017-10-11T04:40:09.663Z,15.03
2017-10-11T04:42:36.643Z,13.73
2017-10-11T04:45:02.861Z,13.97
2017-10-11T04:47:29.096Z,13.87
2017-10-11T04:49:55.292Z,15.00
2017-10-11T04:52:22.354Z,15.00
2017-10-11T04:54:48.565Z,15.47
2017-10-11T04:57:15.477Z,13.57
2017-10-11T04:59:41.701Z,13.43
2017-10-11T05:02:07.908Z,15.27
2017-10-11T05:04:34.107Z,15.47
2017-10-11T05:07:00.305Z,15.83
2017-10-11T05:09:26.552Z,15.43
2017-10-11T05:11:52.777Z,17.30
2017-10-11T05:14:19.727Z,18.00
2017-10-11T05:16:46.696Z,18.17
2017-10-11T05:19:12.912Z,17.33
2017-10-11T05:21:39.100Z,19.63
2017-10-11T05:24:05.354Z,17.47
2017-10-11T05:26:32.273Z,17.30
2017-10-11T05:28:58.564Z,18.60
2017-10-11T05:31:24.759Z,18.40
2017-10-11T05:33:51.696Z,17.03
2017-10-11T05:36:18.650Z,15.60
2017-10-11T05:38:45.594Z,17.53
2017-10-11T05:41:12.537Z,16.80
2017-10-11T05:43:39.467Z,17.83
2017-10-11T05:46:05.713Z,18.00
2017-10-11T05:48:32.634Z,18.53
2017-10-11T05:50:58.922Z,17.73
2017-10-11T05:53:25.105Z,17.03
2017-10-11T05:55:51.417Z,17.43
2017-10-11T05:58:17.608Z,16.30
2017-10-11T06:00:43.861Z,11.67
2017-10-11T06:03:10.033Z,15.70
2017-10-11T06:05:37.006Z,16.10
2017-10-11T06:08:03.185Z,16.07
2017-10-11T06:10:29.365Z,15.27
2017-10-11T06:12:55.588Z,15.73
2017-10-11T06:15:21.808Z,19.67
2017-10-11T06:17:48.766Z,19.50
2017-10-11T06:20:14.949Z,26.07
2017-10-11T06:22:41.896Z,23.17
2017-10-11T06:25:08.830Z,26.07
2017-10-11T06:27:35.062Z,22.70
2017-10-11T06:30:01.254Z,25.10
2017-10-11T06:32:27.485Z,24.30
2017-10-11T06:34:53.682Z,24.90
2017-10-11T06:37:19.925Z,23.17
2017-10-11T06:39:46.142Z,24.80
2017-10-11T06:42:12.337Z,22.67
2017-10-11T06:44:39.286Z,23.23
2017-10-11T06:47:06.210Z,19.90
2017-10-11T06:49:32.427Z,19.87
2017-10-11T06:51:58.638Z,18.73
2017-10-11T06:54:24.890Z,18.93
2017-10-11T06:56:51.120Z,17.10
2017-10-11T06:59:17.324Z,16.30
2017-10-11T07:01:43.525Z,16.37
2017-10-11T07:04:09.739Z,16.57
2017-10-11T07:06:36.703Z,15.83
2017-10-11T07:09:02.997Z,16.37
2017-10-11T07:11:29.926Z,16.90
2017-10-11T07:13:56.148Z,15.17
2017-10-11T07:16:22.526Z,12.77
2017-10-11T07:18:48.731Z,14.10
2017-10-11T07:21:15.674Z,15.40
2017-10-11T07:23:42.629Z,15.60
2017-10-11T07:26:09.565Z,14.50
2017-10-11T07:28:36.517Z,14.27
2017-10-11T07:31:03.485Z,14.43
2017-10-11T07:33:29.669Z,13.73
2017-10-11T07:35:55.885Z,13.30
2017-10-11T07:38:22.950Z,14.13
2017-10-11T07:40:49.877Z,13.63
2017-10-11T07:43:16.117Z,14.27
2017-10-11T07:45:42.369Z,12.93
2017-10-11T07:48:09.365Z,12.50
2017-10-11T07:50:35.601Z,13.07
2017-10-11T07:53:02.553Z,13.40
2017-10-11T07:55:28.848Z,14.20
2017-10-11T07:57:55.056Z,13.10
2017-10-11T08:00:21.390Z,11.73
2017-10-11T08:02:47.636Z,14.13
2017-10-11T08:05:13.977Z,12.37
2017-10-11T08:07:40.925Z,11.60
2017-10-11T08:10:07.213Z,11.97
2017-10-11T08:12:34.157Z,12.63
2017-10-11T08:15:01.180Z,13.67
2017-10-11T08:17:27.430Z,11.70
2017-10-11T08:19:54.375Z,12.03
2017-10-11T08:22:21.334Z,11.43
2017-10-11T08:24:47.583Z,14.83
2017-10-11T08:27:13.806Z,14.63
2017-10-11T08:29:40.065Z,15.97
2017-10-11T08:32:06.301Z,15.07
2017-10-11T08:34:32.518Z,16.50
2017-10-11T08:36:58.810Z,18.10
2017-10-11T08:39:25.044Z,16.67
2017-10-11T08:41:51.266Z,18.77
2017-10-11T08:44:17.518Z,16.10
2017-10-11T08:46:43.781Z,14.00
2017-10-11T08:49:10.055Z,12.17
2017-10-11T08:51:36.307Z,16.73
2017-10-11T08:54:02.525Z,15.70
2017-10-11T08:56:28.754Z,15.90
2017-10-11T08:58:54.937Z,12.23
2017-10-11T09:01:21.873Z,14.63
2017-10-11T09:03:48.093Z,9.93
2017-10-11T09:06:14.329Z,12.60
2017-10-11T09:08:40.512Z,11.70
2017-10-11T09:11:06.773Z,10.80
2017-10-11T09:13:33.016Z,12.27
2017-10-11T09:15:59.309Z,8.73
2017-10-11T09:18:25.546Z,10.60
2017-10-11T09:20:51.781Z,10.00
2017-10-11T09:23:18.110Z,9.80
2017-10-11T09:25:44.304Z,8.90
2017-10-11T09:28:10.582Z,9.47
2017-10-11T09:30:36.889Z,9.63
2017-10-11T09:33:03.210Z,9.90
2017-10-11T09:35:29.398Z,11.80
2017-10-11T09:37:56.413Z,9.50
2017-10-11T09:40:22.633Z,9.97
2017-10-11T09:42:48.873Z,9.40
2017-10-11T09:45:15.105Z,10.13
2017-10-11T09:47:41.321Z,10.13
2017-10-11T09:50:07.558Z,11.00
2017-10-11T09:52:33.837Z,10.23
2017-10-11T09:55:00.117Z,10.50
2017-10-11T09:57:26.426Z,9.70
2017-10-11T09:59:52.648Z,8.67
2017-10-11T10:02:18.993Z,9.60
2017-10-11T10:04:45.266Z,9.90
2017-10-11T10:07:11.517Z,10.97
2017-10-11T10:09:37.757Z,11.00
2017-10-11T10:12:04.017Z,11.13
2017-10-11T10:14:30.336Z,11.13
2017-10-11T10:16:56.570Z,10.87
2017-10-11T10:19:29.785Z,9.57
2017-10-11T10:21:56.055Z,10.63
2017-10-11T10:24:22.270Z,11.57
2017-10-11T10:26:48.470Z,10.93
2017-10-11T10:29:14.756Z,9.93
2017-10-11T10:31:40.977Z,9.70
2017-10-11T10:34:07.173Z,9.70
2017-10-11T10:36:34.093Z,11.27
2017-10-11T10:39:00.301Z,10.30
2017-10-11T10:41:26.505Z,11.40
2017-10-11T10:43:52.709Z,11.20
2017-10-11T10:46:18.922Z,10.67
2017-10-11T10:48:45.894Z,9.00
2017-10-11T10:51:12.827Z,10.30
2017-10-11T10:53:39.055Z,10.83
2017-10-11T10:56:05.249Z,9.30
2017-10-11T10:58:31.491Z,10.90
2017-10-11T11:00:58.421Z,8.73
2017-10-11T11:03:24.710Z,9.40
2017-10-11T11:05:50.927Z,9.70
2017-10-11T11:08:17.156Z,10.83
2017-10-11T11:10:43.381Z,10.50
2017-10-11T11:13:09.606Z,9.63
2017-10-11T11:15:35.814Z,8.73
2017-10-11T11:18:02.764Z,8.40
2017-10-11T11:20:29.689Z,9.13
2017-10-11T11:22:56.667Z,8.00
2017-10-11T11:25:22.901Z,9.40
2017-10-11T11:27:49.178Z,8.70
2017-10-11T11:30:15.968Z,9.27
2017-10-11T11:32:42.411Z,9.27
2017-10-11T11:35:09.051Z,7.90
2017-10-11T11:37:35.261Z,7.70
2017-10-11T11:40:01.641Z,7.10
2017-10-11T11:42:27.837Z,5.90
2017-10-11T11:44:54.090Z,5.73
2017-10-11T11:47:20.353Z,6.20
2017-10-11T11:49:46.629Z,5.67
2017-10-11T11:52:12.857Z,5.40
2017-10-11T11:54:39.164Z,5.30
2017-10-11T11:57:05.383Z,5.50
2017-10-11T11:59:32.434Z,5.33
2017-10-11T12:01:58.717Z,5.30
2017-10-11T12:04:24.945Z,5.13
2017-10-11T12:06:51.164Z,5.27
2017-10-11T12:09:17.380Z,4.57
2017-10-11T12:11:43.589Z,4.50
2017-10-11T12:14:09.773Z,4.00
2017-10-11T12:16:35.997Z,5.40
2017-10-11T12:19:02.209Z,5.30
2017-10-11T12:21:29.489Z,5.27
2017-10-11T12:23:56.565Z,5.50
2017-10-11T12:26:22.770Z,5.67
2017-10-11T12:28:49.777Z,5.10
2017-10-11T12:31:15.961Z,5.20
2017-10-11T12:33:42.237Z,5.80
2017-10-11T12:36:08.457Z,5.20
2017-10-11T12:38:34.925Z,5.30
2017-10-11T12:41:01.162Z,4.70
2017-10-11T12:43:28.121Z,4.40
2017-10-11T12:45:55.110Z,4.07
2017-10-11T12:48:21.373Z,3.70
2017-10-11T12:50:47.718Z,3.57
2017-10-11T12:53:13.942Z,3.77
2017-10-11T12:55:40.965Z,3.77
2017-10-11T12:58:07.204Z,3.90
2017-10-11T13:00:33.552Z,3.20
2017-10-11T13:03:00.507Z,3.80
2017-10-11T13:05:27.450Z,3.70
2017-10-11T13:07:54.386Z,3.40
2017-10-11T13:10:21.350Z,3.40
2017-10-11T13:12:47.562Z,4.53
2017-10-11T13:15:13.771Z,3.67
2017-10-11T13:17:40.742Z,4.33
2017-10-11T13:20:07.677Z,4.17
2017-10-11T13:22:34.693Z,4.00
2017-10-11T13:25:00.906Z,4.47
2017-10-11T13:27:27.168Z,4.70
2017-10-11T13:29:53.466Z,5.13
2017-10-11T13:32:19.696Z,3.77
2017-10-11T13:34:45.940Z,5.00
2017-10-11T13:37:12.133Z,4.70
2017-10-11T13:39:38.353Z,5.60
2017-10-11T13:42:04.609Z,5.23
2017-10-11T13:44:30.822Z,4.93
2017-10-11T13:46:57.061Z,5.53
2017-10-11T13:49:23.294Z,4.60
2017-10-11T13:51:49.496Z,5.03
2017-10-11T13:54:15.751Z,4.80
2017-10-11T13:56:41.977Z,5.40
2017-10-11T13:59:08.211Z,4.67
2017-10-11T14:01:34.450Z,5.47
2017-10-11T14:04:00.658Z,4.83
2017-10-11T14:06:26.878Z,5.30
2017-10-11T14:08:53.072Z,4.70
2017-10-11T14:11:20.022Z,4.10
2017-10-11T14:13:46.206Z,4.83
2017-10-11T14:16:12.430Z,4.40
2017-10-11T14:18:38.649Z,5.23
2017-10-11T14:21:04.910Z,5.77
2017-10-11T14:23:31.237Z,7.03
2017-10-11T14:25:57.470Z,5.63
2017-10-11T14:28:24.488Z,5.53
2017-10-11T14:30:50.737Z,6.40
2017-10-11T14:33:16.969Z,6.77
2017-10-11T14:35:43.181Z,5.80
2017-10-11T14:38:09.382Z,6.70
2017-10-11T14:40:35.602Z,9.13
2017-10-11T14:43:01.784Z,8.80
2017-10-11T14:45:28.833Z,7.90
2017-10-11T14:47:55.859Z,8.03
2017-10-11T14:50:22.078Z,8.53
2017-10-11T14:52:48.293Z,8.63
2017-10-11T14:55:14.534Z,9.20
2017-10-11T14:57:40.766Z,9.03
2017-10-11T15:00:07.038Z,9.23
2017-10-11T15:02:33.982Z,9.57
2017-10-11T15:05:00.934Z,9.93
2017-10-11T15:07:27.191Z,9.53
2017-10-11T15:09:53.427Z,10.10
2017-10-11T15:12:19.707Z,8.70
2017-10-11T15:14:46.662Z,9.03
2017-10-11T15:17:12.921Z,9.33
2017-10-11T15:19:39.191Z,9.50
2017-10-11T15:22:05.407Z,8.87
2017-10-11T15:24:31.609Z,8.43
2017-10-11T15:26:57.840Z,8.63
2017-10-11T15:29:24.081Z,7.97
2017-10-11T15:31:50.258Z,8.50
2017-10-11T15:34:17.206Z,8.87
2017-10-11T15:36:44.193Z,8.47
2017-10-11T15:39:10.398Z,8.37
2017-10-11T15:41:36.630Z,8.73
2017-10-11T15:44:02.818Z,9.30
2017-10-11T15:46:29.839Z,8.13
2017-10-11T15:48:56.066Z,8.10
2017-10-11T15:51:22.993Z,8.07
2017-10-11T15:53:50.261Z,8.10
2017-10-11T15:56:16.458Z,6.90
2017-10-11T15:58:42.652Z,7.70
2017-10-11T16:01:09.661Z,7.17
2017-10-11T16:03:35.905Z,7.33
2017-10-11T16:06:02.105Z,7.53
2017-10-11T16:08:28.289Z,6.50
2017-10-11T16:10:55.264Z,6.50
2017-10-11T16:13:21.452Z,6.30
2017-10-11T16:15:48.469Z,6.30
2017-10-11T16:18:14.664Z,6.40
2017-10-11T16:20:40.865Z,7.17
2017-10-11T16:23:07.785Z,4.70
2017-10-11T16:25:34.005Z,6.63
2017-10-11T16:28:00.333Z,5.87
2017-10-11T16:30:26.648Z,6.30
2017-10-11T16:32:52.854Z,5.90
2017-10-11T16:35:19.246Z,5.90
2017-10-11T16:37:46.251Z,6.53
2017-10-11T16:40:12.485Z,6.27
2017-10-11T16:42:38.673Z,6.50
2017-10-11T16:45:04.932Z,6.70
2017-10-11T16:47:31.182Z,7.13
2017-10-11T16:49:57.389Z,6.40
2017-10-11T16:52:23.603Z,7.20
2017-10-11T16:54:49.832Z,6.23
2017-10-11T16:57:16.014Z,7.53
2017-10-11T16:59:43.021Z,7.73
2017-10-11T17:02:09.208Z,6.40
2017-10-11T17:04:35.458Z,8.07
2017-10-11T17:07:01.653Z,7.03
2017-10-11T17:09:28.605Z,7.87
2017-10-11T17:11:55.573Z,7.43
2017-10-11T17:14:21.829Z,6.93
2017-10-11T17:16:48.753Z,6.73
2017-10-11T17:19:15.253Z,7.37
2017-10-11T17:21:42.212Z,8.47
2017-10-11T17:24:08.400Z,6.47
2017-10-11T17:26:34.706Z,6.80
2017-10-11T17:29:00.904Z,6.37
2017-10-11T17:31:27.133Z,7.80
2017-10-11T17:33:53.336Z,6.70
2017-10-11T17:36:20.289Z,6.87
2017-10-11T17:38:47.277Z,7.13
2017-10-11T17:41:13.513Z,7.00
2017-10-11T17:43:39.701Z,6.70
2017-10-11T17:46:05.926Z,7.00
2017-10-11T17:48:32.109Z,6.40
2017-10-11T17:50:58.409Z,6.60
2017-10-11T17:53:24.655Z,7.40
2017-10-11T17:55:50.846Z,6.60
2017-10-11T17:58:17.070Z,6.37
2017-10-11T18:00:43.264Z,5.47
2017-10-11T18:03:09.492Z,6.67
2017-10-11T18:05:35.669Z,6.40
2017-10-11T18:08:01.868Z,6.30
2017-10-11T18:10:29.134Z,6.60
2017-10-11T18:12:55.406Z,7.23
2017-10-11T18:15:21.600Z,6.70
2017-10-11T18:17:47.802Z,6.60
2017-10-11T18:20:14.733Z,6.90
2017-10-11T18:22:40.925Z,6.53
2017-10-11T18:25:07.147Z,6.83
2017-10-11T18:27:33.393Z,6.03
2017-10-11T18:29:59.598Z,6.57
2017-10-11T18:32:25.854Z,6.20
2017-10-11T18:34:52.041Z,5.90
2017-10-11T18:37:18.220Z,6.00
2017-10-11T18:39:44.433Z,5.17
2017-10-11T18:42:10.633Z,6.00
2017-10-11T18:44:36.833Z,5.63
2017-10-11T18:47:03.116Z,5.57
2017-10-11T18:49:29.316Z,5.50
2017-10-11T18:51:55.573Z,5.40
2017-10-11T18:54:21.788Z,6.50
2017-10-11T18:56:47.963Z,5.10
2017-10-11T18:59:14.933Z,5.00
2017-10-11T19:01:41.113Z,5.90
2017-10-11T19:04:07.345Z,5.90
2017-10-11T19:06:33.629Z,5.73
2017-10-11T19:08:59.877Z,6.40
2017-10-11T19:11:26.804Z,5.60
2017-10-11T19:13:53.051Z,5.43
2017-10-11T19:16:19.232Z,5.33
2017-10-11T19:18:46.257Z,5.30
2017-10-11T19:21:12.474Z,5.10
2017-10-11T19:23:38.916Z,5.40
2017-10-11T19:26:05.097Z,5.37
2017-10-11T19:28:31.309Z,5.83
2017-10-11T19:30:57.509Z,5.90
2017-10-11T19:33:24.453Z,5.67
2017-10-11T19:35:51.417Z,5.57
2017-10-11T19:38:17.629Z,4.97
2017-10-11T19:40:44.564Z,5.30
2017-10-11T19:43:10.770Z,5.60
2017-10-11T19:45:36.949Z,5.47
2017-10-11T19:48:03.175Z,5.07
2017-10-11T19:50:29.373Z,5.13
2017-10-11T19:52:55.572Z,5.83
2017-10-11T19:55:21.786Z,5.27
2017-10-11T19:57:47.990Z,4.90
2017-10-11T20:00:14.477Z,5.27
2017-10-11T20:02:40.688Z,5.70
2017-10-11T20:05:06.966Z,5.10
2017-10-11T20:07:33.962Z,5.33
2017-10-11T20:10:00.914Z,4.90
2017-10-11T20:12:27.877Z,4.93
2017-10-11T20:14:54.181Z,4.80
2017-10-11T20:17:20.375Z,4.90
2017-10-11T20:19:46.592Z,4.97
2017-10-11T20:22:12.773Z,5.07
2017-10-11T20:24:39.040Z,5.13
2017-10-11T20:27:05.988Z,4.87
2017-10-11T20:29:32.933Z,5.30
2017-10-11T20:31:59.881Z,3.97
2017-10-11T20:34:26.997Z,4.83
2017-10-11T20:36:53.200Z,4.33
2017-10-11T20:39:19.537Z,5.07
2017-10-11T20:41:45.869Z,5.17
2017-10-11T20:44:12.196Z,4.97
2017-10-11T20:46:38.420Z,4.40
2017-10-11T20:49:04.630Z,4.40
2017-10-11T20:51:30.848Z,4.77
2017-10-11T20:53:57.054Z,5.17
2017-10-11T20:56:23.998Z,4.60
2017-10-11T20:58:50.978Z,4.73
2017-10-11T21:01:17.205Z,4.67
2017-10-11T21:03:43.405Z,5.13
2017-10-11T21:06:10.329Z,4.90
2017-10-11T21:08:36.533Z,5.00
2017-10-11T21:11:02.717Z,4.63
2017-10-11T21:13:29.086Z,4.90
2017-10-11T21:15:55.268Z,4.60
2017-10-11T21:18:22.257Z,4.53
2017-10-11T21:20:48.448Z,5.20
2017-10-11T21:23:14.649Z,4.50
2017-10-11T21:25:40.821Z,4.50
2017-10-11T21:28:07.050Z,4.20
2017-10-11T21:30:33.283Z,4.70
2017-10-11T21:32:59.473Z,3.57
2017-10-11T21:35:26.473Z,4.13
2017-10-11T21:37:52.886Z,4.60
2017-10-11T21:40:19.098Z,3.47
2017-10-11T21:42:45.276Z,4.50
2017-10-11T21:45:11.506Z,4.07
2017-10-11T21:47:38.562Z,3.90
2017-10-11T21:50:04.773Z,3.87
2017-10-11T21:52:30.949Z,3.40
2017-10-11T21:54:57.141Z,3.60
2017-10-11T21:57:24.237Z,3.70
2017-10-11T21:59:50.445Z,3.43
2017-10-11T22:02:17.378Z,3.70
2017-10-11T22:04:44.501Z,3.80
2017-10-11T22:07:10.691Z,3.40
2017-10-11T22:09:36.963Z,3.60
2017-10-11T22:12:03.161Z,3.10
2017-10-11T22:14:29.353Z,2.93
2017-10-11T22:16:56.273Z,3.37
2017-10-11T22:19:22.472Z,3.43
2017-10-11T22:21:48.784Z,3.50
2017-10-11T22:24:15.020Z,3.50
2017-10-11T22:26:41.192Z,3.33
2017-10-11T22:29:07.406Z,3.30
2017-10-11T22:31:33.625Z,3.77
2017-10-11T22:33:59.834Z,3.77
2017-10-11T22:36:26.160Z,3.43
2017-10-11T22:38:52.370Z,3.47
2017-10-11T22:41:18.550Z,3.70
2017-10-11T22:43:44.750Z,3.37
2017-10-11T22:46:10.963Z,3.70
2017-10-11T22:48:37.181Z,3.70
2017-10-11T22:51:04.188Z,3.90
2017-10-11T22:53:30.461Z,3.50
2017-10-11T22:55:56.661Z,3.60
2017-10-11T22:58:23.573Z,4.10
2017-10-11T23:00:49.778Z,3.60
2017-10-11T23:03:15.968Z,3.53
2017-10-11T23:05:42.913Z,3.50
2017-10-11T23:08:09.276Z,3.50
2017-10-11T23:10:35.540Z,4.23
2017-10-11T23:13:01.716Z,4.07
2017-10-11T23:15:27.928Z,4.30
2017-10-11T23:17:54.890Z,3.30
2017-10-11T23:20:21.093Z,3.60
2017-10-11T23:22:48.010Z,3.40
2017-10-11T23:25:14.349Z,4.00
2017-10-11T23:27:40.553Z,3.83
2017-10-11T23:30:06.785Z,4.37
2017-10-11T23:32:33.704Z,3.87
2017-10-11T23:35:00.775Z,2.80
2017-10-11T23:37:28.449Z,3.57
2017-10-11T23:39:54.865Z,2.30
2017-10-11T23:42:21.057Z,3.20
2017-10-11T23:44:47.425Z,2.60
2017-10-11T23:47:13.610Z,3.13
2017-10-11T23:49:39.889Z,3.17
2017-10-11T23:52:06.085Z,3.37
2017-10-11T23:54:32.272Z,3.13
2017-10-11T23:56:59.380Z,2.53
2017-10-11T23:59:25.585Z,2.90
